Time;durP1;ratioP1;P1;durP2;ratioP2;P2;SDS_P1;SDS_P2;PMS_P1;PMS_P2;Temp;Humidity;BMP_temperature;BMP_pressure;BME280_temperature;BME280_humidity;BME280_pressure;Samples;Min_cycle;Max_cycle;Signal;HPM_P1;HPM_P2
2022/06/01 00:00:47;;;;;;;;;23.33;23.33;23.50;56.60;;;;;;4996482;28;8794;-74
2022/06/01 00:03:13;;;;;;;;;31.33;31.00;23.50;56.90;;;;;;4997640;28;8801;-74
2022/06/01 00:05:39;;;;;;;;;34.33;33.00;23.50;56.90;;;;;;4997180;28;8826;-74
2022/06/01 00:08:05;;;;;;;;;35.67;34.67;23.50;56.70;;;;;;4997523;28;8877;-74
2022/06/01 00:10:31;;;;;;;;;38.67;35.33;23.50;56.40;;;;;;4997492;28;8914;-74
2022/06/01 00:12:57;;;;;;;;;43.00;38.00;23.60;56.30;;;;;;4997210;28;8779;-74
2022/06/01 00:15:25;;;;;;;;;45.33;39.33;23.50;56.30;;;;;;4997158;28;8810;-74
2022/06/01 00:17:51;;;;;;;;;34.33;33.00;23.50;56.30;;;;;;4997232;28;8889;-74
2022/06/01 00:20:17;;;;;;;;;28.33;28.33;23.50;56.20;;;;;;4996914;28;8810;-75
2022/06/01 00:22:44;;;;;;;;;24.33;24.33;23.60;56.20;;;;;;4997156;28;8774;-74
2022/06/01 00:25:12;;;;;;;;;30.00;30.00;23.50;56.40;;;;;;5012231;28;8831;-75
2022/06/01 00:27:38;;;;;;;;;31.67;31.33;23.50;56.50;;;;;;4996982;28;8767;-74
2022/06/01 00:30:10;;;;;;;;;44.33;38.67;23.50;56.50;;;;;;4996918;28;8771;-74
2022/06/01 00:32:36;;;;;;;;;47.33;41.33;23.50;56.30;;;;;;4997208;28;8759;-73
2022/06/01 00:35:04;;;;;;;;;49.00;41.67;23.50;56.20;;;;;;5011802;28;8806;-74
2022/06/01 00:37:30;;;;;;;;;42.67;38.00;23.40;56.50;;;;;;4996800;28;8878;-73
2022/06/01 00:39:56;;;;;;;;;52.00;43.33;23.40;56.70;;;;;;4996740;28;8776;-74
2022/06/01 00:42:24;;;;;;;;;50.00;43.00;23.40;56.70;;;;;;4996664;28;8794;-73
2022/06/01 00:44:52;;;;;;;;;40.67;36.67;23.30;56.70;;;;;;4996608;28;9476;-75
2022/06/01 00:47:19;;;;;;;;;43.67;38.67;23.20;57.00;;;;;;4996488;28;8786;-75
2022/06/01 00:50:04;;;;;;;;;48.33;41.33;23.20;57.00;;;;;;4996918;28;9400;-73
2022/06/01 00:52:35;;;;;;;;;49.00;42.67;23.20;57.10;;;;;;4996761;28;8875;-74
2022/06/01 00:55:12;;;;;;;;;36.00;35.00;23.20;57.30;;;;;;4996647;28;8829;-73
2022/06/01 00:57:38;;;;;;;;;40.33;37.00;23.20;57.40;;;;;;4996691;28;8759;-73
2022/06/01 01:00:17;;;;;;;;;44.00;39.00;23.20;57.40;;;;;;4996523;28;8791;-74
2022/06/01 01:02:44;;;;;;;;;38.33;35.33;23.10;57.60;;;;;;5011635;28;8865;-74
2022/06/01 01:05:12;;;;;;;;;44.00;39.67;23.10;57.80;;;;;;4996046;28;8885;-74
2022/06/01 01:07:40;;;;;;;;;38.67;35.67;23.10;58.60;;;;;;4996328;28;8798;-73
2022/06/01 01:10:07;;;;;;;;;39.33;35.67;23.10;57.70;;;;;;4996096;28;8861;-73
2022/06/01 01:15:20;;;;;;;;;42.00;37.33;23.20;57.40;;;;;;4996037;28;8873;-74
2022/06/01 01:17:48;;;;;;;;;43.00;37.67;23.20;57.30;;;;;;4995884;28;8849;-74
2022/06/01 01:20:15;;;;;;;;;28.67;28.67;23.10;57.40;;;;;;4994630;28;8925;-74
2022/06/01 01:22:58;;;;;;;;;31.00;30.67;23.10;57.40;;;;;;4995510;28;8747;-73
2022/06/01 01:25:28;;;;;;;;;44.00;39.00;23.10;57.60;;;;;;4995919;28;8922;-76
2022/06/01 01:27:57;;;;;;;;;66.25;54.25;23.00;57.40;;;;;;5011047;28;9595;-75
2022/06/01 01:30:37;;;;;;;;;65.25;54.50;23.10;57.40;;;;;;4995946;28;8783;-74
2022/06/01 01:33:15;;;;;;;;;63.75;53.50;23.10;57.40;;;;;;4995765;28;8862;-74
2022/06/01 01:35:43;;;;;;;;;54.25;46.00;23.10;57.10;;;;;;4995732;28;8925;-74
2022/06/01 01:38:15;;;;;;;;;64.25;53.00;23.10;57.00;;;;;;4995660;28;8797;-74
2022/06/01 01:40:41;;;;;;;;;79.75;69.00;23.00;57.00;;;;;;4994592;28;8799;-75
2022/06/01 01:43:07;;;;;;;;;73.50;63.75;23.00;57.00;;;;;;4995797;28;8770;-74
2022/06/01 01:45:36;;;;;;;;;67.25;55.25;22.90;57.30;;;;;;4995074;28;8798;-74
2022/06/01 01:48:03;;;;;;;;;72.75;61.00;22.90;57.40;;;;;;4995648;28;8892;-75
2022/06/01 01:50:29;;;;;;;;;68.50;55.75;22.90;57.40;;;;;;4995464;28;8849;-74
2022/06/01 01:52:55;;;;;;;;;69.25;56.25;23.00;57.30;;;;;;4995366;28;8816;-73
2022/06/01 01:55:41;;;;;;;;;54.00;45.50;23.00;57.10;;;;;;4995619;28;8897;-74
2022/06/01 01:58:37;;;;;;;;;46.67;41.33;23.00;56.90;;;;;;4995012;28;8790;-73
2022/06/01 02:01:13;;;;;;;;;28.33;28.33;22.70;57.60;;;;;;4995553;28;8790;-76
2022/06/01 02:04:05;;;;;;;;;38.33;34.67;22.40;59.10;;;;;;4995344;28;8783;-75
2022/06/01 02:06:49;;;;;;;;;24.33;24.33;22.60;58.70;;;;;;4995410;28;8802;-75
2022/06/01 02:09:15;;;;;;;;;16.33;16.33;22.70;58.20;;;;;;4995440;28;8799;-74
2022/06/01 02:14:37;;;;;;;;;16.33;16.33;22.60;57.90;;;;;;4995234;28;8779;-75
2022/06/01 02:17:16;;;;;;;;;13.00;13.00;22.50;58.10;;;;;;4994046;28;11553;-74
2022/06/01 02:19:54;;;;;;;;;15.33;15.33;22.60;58.20;;;;;;4994890;28;9475;-74
2022/06/01 02:22:20;;;;;;;;;15.33;15.33;22.60;58.00;;;;;;4995337;28;8762;-75
2022/06/01 02:24:46;;;;;;;;;10.33;10.33;22.60;58.10;;;;;;4994192;28;12280;-75
2022/06/01 02:27:13;;;;;;;;;13.67;13.67;22.60;57.70;;;;;;4994980;28;8779;-75
2022/06/01 02:29:44;;;;;;;;;13.33;13.33;22.60;57.60;;;;;;4995076;28;11629;-75
2022/06/01 02:32:12;;;;;;;;;14.33;14.33;22.70;57.40;;;;;;4995002;28;8794;-74
2022/06/01 02:34:39;;;;;;;;;13.33;13.33;22.70;57.20;;;;;;4995099;28;11618;-74
2022/06/01 02:37:07;;;;;;;;;14.00;14.00;22.80;57.00;;;;;;4995078;28;11506;-75
2022/06/01 02:39:38;;;;;;;;;13.67;13.67;22.70;56.90;;;;;;4994756;28;11504;-75
2022/06/01 02:42:31;;;;;;;;;12.33;12.33;22.70;56.70;;;;;;4994471;28;11533;-74
2022/06/01 02:45:08;;;;;;;;;12.33;12.33;22.70;56.70;;;;;;4994887;28;11653;-75
2022/06/01 02:47:37;;;;;;;;;13.00;13.00;22.60;56.90;;;;;;4994572;28;11612;-74
2022/06/01 02:50:06;;;;;;;;;12.67;12.67;22.60;56.90;;;;;;4994624;28;11588;-74
2022/06/01 02:52:32;;;;;;;;;14.33;14.33;22.60;56.70;;;;;;5009929;28;11623;-75
2022/06/01 02:54:58;;;;;;;;;12.00;11.67;22.40;57.50;;;;;;4994584;28;11546;-75
2022/06/01 02:57:24;;;;;;;;;13.33;13.33;22.50;57.40;;;;;;4996444;28;11535;-75
2022/06/01 02:59:50;;;;;;;;;14.33;14.33;22.50;57.20;;;;;;4998490;28;9425;-75
2022/06/01 03:02:17;;;;;;;;;14.33;14.33;22.60;57.20;;;;;;4998617;28;8782;-74
2022/06/01 03:04:44;;;;;;;;;11.33;11.33;22.50;57.60;;;;;;4998370;28;8822;-74
2022/06/01 03:07:11;;;;;;;;;12.00;12.00;22.50;57.20;;;;;;4998552;28;12188;-75
2022/06/01 03:09:37;;;;;;;;;8.33;8.33;22.60;57.10;;;;;;4998608;28;11496;-75
2022/06/01 03:12:05;;;;;;;;;13.33;13.33;22.50;57.10;;;;;;4998198;28;8799;-74
2022/06/01 03:14:32;;;;;;;;;12.00;12.00;22.50;57.20;;;;;;4998199;28;11508;-74
2022/06/01 03:16:58;;;;;;;;;14.67;14.67;22.40;57.60;;;;;;4997939;28;11498;-74
2022/06/01 03:19:24;;;;;;;;;14.00;14.00;22.50;57.60;;;;;;4997785;28;11583;-75
2022/06/01 03:21:50;;;;;;;;;14.33;14.33;22.50;57.30;;;;;;5013431;28;8802;-74
2022/06/01 03:24:16;;;;;;;;;12.33;12.33;22.40;57.60;;;;;;4997985;28;11517;-74
2022/06/01 03:26:42;;;;;;;;;14.33;13.33;22.40;57.50;;;;;;4997979;28;8799;-73
2022/06/01 03:29:09;;;;;;;;;9.67;9.67;22.50;57.30;;;;;;4998238;28;8819;-74
2022/06/01 03:31:35;;;;;;;;;16.33;16.33;22.60;57.00;;;;;;4997886;28;11497;-74
2022/06/01 03:34:02;;;;;;;;;13.33;13.33;22.60;56.70;;;;;;4997846;28;8900;-74
2022/06/01 03:36:28;;;;;;;;;15.33;13.00;22.60;56.30;;;;;;4997793;28;11522;-74
2022/06/01 03:38:53;;;;;;;;;14.00;14.00;22.30;56.20;;;;;;4997550;28;11509;-75
2022/06/01 03:41:20;;;;;;;;;11.33;11.33;22.30;56.40;;;;;;4998060;28;8756;-74
2022/06/01 03:46:34;;;;;;;;;12.00;12.00;22.40;56.50;;;;;;4997566;28;11577;-74
2022/06/01 03:49:00;;;;;;;;;15.33;15.33;22.40;56.40;;;;;;4997978;28;11545;-74
2022/06/01 03:51:26;;;;;;;;;13.33;13.33;22.40;56.20;;;;;;4997521;28;11550;-73
2022/06/01 03:53:53;;;;;;;;;13.67;13.67;22.40;56.20;;;;;;4997810;28;9550;-74
2022/06/01 03:56:22;;;;;;;;;13.00;12.00;22.20;57.10;;;;;;4997497;28;11637;-74
2022/06/01 03:58:49;;;;;;;;;10.67;10.67;22.10;58.10;;;;;;4997357;28;11526;-74
2022/06/01 04:01:15;;;;;;;;;10.67;10.67;22.30;57.10;;;;;;4997526;28;11539;-74
2022/06/01 04:03:41;;;;;;;;;11.00;11.00;21.80;57.90;;;;;;4997328;28;11514;-73
2022/06/01 04:06:07;;;;;;;;;15.00;15.00;21.70;59.20;;;;;;5012509;28;11545;-73
2022/06/01 04:08:33;;;;;;;;;13.67;13.67;21.80;59.00;;;;;;4996839;28;8775;-74
2022/06/01 04:10:58;;;;;;;;;13.00;13.00;21.80;59.10;;;;;;4997234;28;9393;-74
2022/06/01 04:13:26;;;;;;;;;13.00;13.00;21.60;59.80;;;;;;4997245;28;8875;-73
2022/06/01 04:15:52;;;;;;;;;12.33;12.33;21.70;60.20;;;;;;4997083;28;8857;-73
2022/06/01 04:18:18;;;;;;;;;12.67;12.67;21.90;59.70;;;;;;4997502;28;8799;-74
2022/06/01 04:20:44;;;;;;;;;9.00;9.00;22.10;59.70;;;;;;4996887;28;11634;-74
2022/06/01 04:23:11;;;;;;;;;13.33;13.33;22.30;58.30;;;;;;5012161;28;8809;-74
2022/06/01 04:25:37;;;;;;;;;14.33;14.33;22.50;57.70;;;;;;4997027;28;11626;-74
2022/06/01 04:28:03;;;;;;;;;13.00;13.00;22.40;57.70;;;;;;4997007;28;8849;-74
2022/06/01 04:30:29;;;;;;;;;12.33;12.33;22.40;58.10;;;;;;4997130;28;8814;-76
2022/06/01 04:32:56;;;;;;;;;10.00;10.00;22.50;57.90;;;;;;4996751;28;11521;-74
2022/06/01 04:35:23;;;;;;;;;9.33;9.33;22.60;57.70;;;;;;4997043;28;9604;-73
2022/06/01 04:37:49;;;;;;;;;14.67;14.67;22.70;57.70;;;;;;4996997;28;8767;-73
2022/06/01 04:40:17;;;;;;;;;14.00;14.00;22.70;57.60;;;;;;4996093;28;8787;-74
2022/06/01 04:42:43;;;;;;;;;11.33;11.33;22.80;57.70;;;;;;4996665;28;8873;-71
2022/06/01 04:45:11;;;;;;;;;12.67;12.67;22.80;57.80;;;;;;5011687;28;9535;-75
2022/06/01 04:47:37;;;;;;;;;13.33;13.33;22.80;57.80;;;;;;4996397;28;9440;-73
2022/06/01 04:50:03;;;;;;;;;15.33;15.33;22.90;57.70;;;;;;4996563;28;8779;-78
2022/06/01 04:52:29;;;;;;;;;13.33;13.33;23.00;57.60;;;;;;4996437;28;11509;-77
2022/06/01 04:54:55;;;;;;;;;17.00;17.00;23.00;57.50;;;;;;4994765;28;9898;-73
2022/06/01 04:57:21;;;;;;;;;17.33;17.33;23.00;57.60;;;;;;4996232;28;8878;-77
2022/06/01 04:59:47;;;;;;;;;15.00;15.00;23.00;57.60;;;;;;4996107;28;8791;-75
2022/06/01 05:02:13;;;;;;;;;16.00;16.00;22.90;57.90;;;;;;4996564;28;8881;-76
2022/06/01 05:04:40;;;;;;;;;12.00;12.00;22.70;58.70;;;;;;4996102;28;8899;-74
2022/06/01 05:07:07;;;;;;;;;17.67;17.67;22.90;58.30;;;;;;4996003;28;8795;-74
2022/06/01 05:09:33;;;;;;;;;15.00;15.00;23.10;58.20;;;;;;4996241;28;8795;-74
2022/06/01 05:11:59;;;;;;;;;13.33;13.33;23.30;57.70;;;;;;4996343;28;8793;-75
2022/06/01 05:14:25;;;;;;;;;11.33;11.33;23.20;57.50;;;;;;4996274;28;8775;-73
2022/06/01 05:16:51;;;;;;;;;16.33;16.33;23.20;57.90;;;;;;4995888;28;8827;-73
2022/06/01 05:19:18;;;;;;;;;9.33;9.33;23.40;57.50;;;;;;4996001;28;8847;-74
2022/06/01 05:21:44;;;;;;;;;19.33;19.33;23.50;57.20;;;;;;4994960;28;8862;-74
2022/06/01 05:24:10;;;;;;;;;20.33;20.33;23.30;57.60;;;;;;4996102;28;8810;-73
2022/06/01 05:26:36;;;;;;;;;17.00;17.00;23.10;58.30;;;;;;4995706;28;8822;-73
2022/06/01 05:29:01;;;;;;;;;20.67;20.67;23.10;59.00;;;;;;4995698;28;8785;-73
2022/06/01 05:31:28;;;;;;;;;14.00;14.00;23.20;59.00;;;;;;4995780;28;8775;-75
2022/06/01 05:33:54;;;;;;;;;16.33;16.33;23.20;58.80;;;;;;4995652;28;8767;-73
2022/06/01 05:36:19;;;;;;;;;16.00;16.00;23.50;58.30;;;;;;4995840;28;8786;-74
2022/06/01 05:38:48;;;;;;;;;16.33;16.33;23.80;57.40;;;;;;4995584;28;9003;-73
2022/06/01 05:41:15;;;;;;;;;19.00;19.00;23.70;56.60;;;;;;4995709;28;8763;-74
2022/06/01 05:43:41;;;;;;;;;13.00;13.00;23.90;56.80;;;;;;4995544;28;8755;-74
2022/06/01 05:46:06;;;;;;;;;13.00;12.67;23.90;56.30;;;;;;4995444;28;8893;-74
2022/06/01 05:48:32;;;;;;;;;12.00;12.00;24.10;56.30;;;;;;4994499;28;8957;-73
2022/06/01 05:50:59;;;;;;;;;8.33;8.33;24.20;56.00;;;;;;4995493;28;8836;-74
2022/06/01 05:53:24;;;;;;;;;10.33;10.33;24.10;55.10;;;;;;4995671;28;8782;-73
2022/06/01 05:55:50;;;;;;;;;11.00;11.00;23.70;55.40;;;;;;4995222;28;11500;-74
2022/06/01 05:58:18;;;;;;;;;10.75;10.75;23.50;56.60;;;;;;4995221;28;8802;-73
2022/06/01 06:00:46;;;;;;;;;12.33;12.33;23.40;57.30;;;;;;4995290;28;8779;-74
2022/06/01 06:03:12;;;;;;;;;11.33;11.33;23.40;57.30;;;;;;4995346;28;11557;-74
2022/06/01 06:08:23;;;;;;;;;13.00;13.00;23.50;56.40;;;;;;4995093;28;11467;-74
2022/06/01 06:10:50;;;;;;;;;10.00;10.00;23.70;55.90;;;;;;4994121;28;12262;-74
2022/06/01 06:13:16;;;;;;;;;9.67;9.67;23.70;56.50;;;;;;4995075;28;11641;-74
2022/06/01 06:15:42;;;;;;;;;11.67;11.67;23.80;56.30;;;;;;4995180;28;11535;-74
2022/06/01 06:18:11;;;;;;;;;9.75;9.75;23.80;56.70;;;;;;4995042;28;11582;-73
2022/06/01 06:20:41;;;;;;;;;9.25;9.25;23.70;56.70;;;;;;4994959;28;8818;-73
2022/06/01 06:23:07;;;;;;;;;9.00;9.00;23.80;56.10;;;;;;4994927;28;11497;-73
2022/06/01 06:25:32;;;;;;;;;7.33;7.33;23.90;54.70;;;;;;4994831;28;11504;-74
2022/06/01 06:27:58;;;;;;;;;10.00;10.00;24.00;54.60;;;;;;4994810;28;8844;-74
2022/06/01 06:30:24;;;;;;;;;8.00;8.00;23.90;55.10;;;;;;4994899;28;8748;-74
2022/06/01 06:32:49;;;;;;;;;7.50;7.50;24.10;54.10;;;;;;4997653;28;9392;-74
2022/06/01 06:35:15;;;;;;;;;6.25;6.25;24.00;54.50;;;;;;4999009;28;8804;-74
2022/06/01 06:37:41;;;;;;;;;7.50;7.50;24.10;54.40;;;;;;4999104;28;8767;-73
2022/06/01 06:40:08;;;;;;;;;9.00;9.00;24.20;54.20;;;;;;4997907;28;8803;-74
2022/06/01 06:42:34;;;;;;;;;8.75;8.75;24.40;54.20;;;;;;4998712;28;11486;-74
2022/06/01 06:45:00;;;;;;;;;11.00;11.00;24.50;54.30;;;;;;4998698;28;11522;-74
2022/06/01 06:47:27;;;;;;;;;9.25;9.25;24.70;54.00;;;;;;4998642;28;8783;-74
2022/06/01 06:49:52;;;;;;;;;7.75;7.75;24.70;54.30;;;;;;4998733;28;8763;-79
2022/06/01 06:52:18;;;;;;;;;3.50;3.50;24.70;54.10;;;;;;4998572;28;11459;-76
2022/06/01 06:54:44;;;;;;;;;4.00;4.00;24.70;54.30;;;;;;4998851;28;8848;-77
2022/06/01 06:57:09;;;;;;;;;6.75;6.75;24.50;54.90;;;;;;4998510;28;8901;-78
2022/06/01 06:59:36;;;;;;;;;2.25;2.25;24.70;54.50;;;;;;4998473;28;8795;-77
2022/06/01 07:02:03;;;;;;;;;7.50;7.50;24.90;54.10;;;;;;4998483;28;8811;-77
2022/06/01 07:04:29;;;;;;;;;9.00;9.00;24.90;54.20;;;;;;4998330;28;11457;-77
2022/06/01 07:06:54;;;;;;;;;8.75;8.75;25.10;53.40;;;;;;4998211;28;11555;-78
2022/06/01 07:09:20;;;;;;;;;10.00;10.00;24.90;53.00;;;;;;4998316;28;8783;-77
2022/06/01 07:11:46;;;;;;;;;11.75;11.75;25.10;53.10;;;;;;4998409;28;8783;-78
2022/06/01 07:14:12;;;;;;;;;12.25;12.25;25.10;52.80;;;;;;5013485;28;8909;-79
2022/06/01 07:16:38;;;;;;;;;8.50;8.50;25.20;52.20;;;;;;4998378;28;8840;-78
2022/06/01 07:19:08;;;;;;;;;7.75;7.75;25.10;51.10;;;;;;4997937;28;8920;-77
2022/06/01 07:21:37;;;;;;;;;9.75;9.75;24.90;52.20;;;;;;4998009;28;11499;-78
2022/06/01 07:24:06;;;;;;;;;9.25;9.25;24.90;52.30;;;;;;4997874;28;11542;-78
2022/06/01 07:26:42;;;;;;;;;9.00;9.00;25.00;52.60;;;;;;4998103;28;11677;-78
2022/06/01 07:29:08;;;;;;;;;9.00;9.00;25.10;52.30;;;;;;4997836;28;11493;-78
2022/06/01 07:31:34;;;;;;;;;8.25;8.25;25.00;52.60;;;;;;4997753;28;11508;-78
2022/06/01 07:34:00;;;;;;;;;12.33;12.33;25.00;52.30;;;;;;4997736;28;11493;-78
2022/06/01 07:36:28;;;;;;;;;9.75;9.75;24.60;54.10;;;;;;5013111;28;8937;-78
2022/06/01 07:44:37;;;;;;;;;13.00;13.00;25.00;53.70;;;;;;4996457;28;11521;-78
2022/06/01 07:47:03;;;;;;;;;12.75;12.75;25.30;53.40;;;;;;4997874;28;12189;-78
2022/06/01 07:49:29;;;;;;;;;13.25;13.25;25.30;53.80;;;;;;4997881;28;11558;-77
2022/06/01 07:51:55;;;;;;;;;12.75;12.75;25.00;56.00;;;;;;4997581;28;11532;-77
2022/06/01 07:54:21;;;;;;;;;11.00;11.00;25.10;54.50;;;;;;4997571;28;8774;-77
2022/06/01 07:56:47;;;;;;;;;11.50;11.50;25.40;53.30;;;;;;4997503;28;8885;-77
2022/06/01 07:59:13;;;;;;;;;12.00;12.00;25.50;52.70;;;;;;4997621;28;11697;-76
2022/06/01 08:01:39;;;;;;;;;10.75;10.75;25.70;51.40;;;;;;4997610;28;9574;-76
2022/06/01 08:04:07;;;;;;;;;10.75;10.75;25.70;51.70;;;;;;4997260;28;11522;-78
2022/06/01 08:06:34;;;;;;;;;10.00;10.00;25.60;50.90;;;;;;4997458;28;11552;-77
2022/06/01 08:09:00;;;;;;;;;12.25;12.25;25.90;51.00;;;;;;4997349;28;12093;-77
2022/06/01 08:14:14;;;;;;;;;12.25;12.25;26.20;50.40;;;;;;4996972;28;11495;-77
2022/06/01 08:16:41;;;;;;;;;12.50;12.50;26.10;49.80;;;;;;4996970;28;11516;-77
2022/06/01 08:19:09;;;;;;;;;11.25;11.25;26.30;49.70;;;;;;5012060;28;11660;-77
2022/06/01 08:21:36;;;;;;;;;12.00;12.00;26.20;49.70;;;;;;4996931;28;11530;-77
2022/06/01 08:24:03;;;;;;;;;9.50;9.50;26.50;49.20;;;;;;4996810;28;11615;-77
2022/06/01 08:26:29;;;;;;;;;3.50;3.50;26.60;49.10;;;;;;4996957;28;12201;-77
2022/06/01 08:28:55;;;;;;;;;12.25;12.25;26.60;48.30;;;;;;4996982;28;11478;-78
2022/06/01 08:31:21;;;;;;;;;12.50;12.50;26.60;48.80;;;;;;4996691;28;11586;-79
2022/06/01 08:33:47;;;;;;;;;9.75;9.75;26.60;48.80;;;;;;4996724;28;8787;-77
2022/06/01 08:36:13;;;;;;;;;12.00;12.00;26.60;48.40;;;;;;4996705;28;8868;-76
2022/06/01 08:38:38;;;;;;;;;8.25;8.25;26.50;48.50;;;;;;4996642;28;8861;-78
2022/06/01 08:41:09;;;;;;;;;12.00;12.00;26.50;48.50;;;;;;4996713;28;11483;-77
2022/06/01 08:43:43;;;;;;;;;12.50;12.50;26.50;47.30;;;;;;4996849;28;8996;-76
2022/06/01 08:46:10;;;;;;;;;12.50;12.50;26.10;48.70;;;;;;4996621;28;11555;-76
2022/06/01 08:48:41;;;;;;;;;12.00;12.00;25.90;49.40;;;;;;4996506;28;11547;-78
2022/06/01 08:51:08;;;;;;;;;7.50;7.50;26.30;49.60;;;;;;4996382;28;11541;-78
2022/06/01 08:53:35;;;;;;;;;12.25;12.25;26.70;49.10;;;;;;4996576;28;11469;-78
2022/06/01 08:56:17;;;;;;;;;13.00;13.00;27.10;48.50;;;;;;4996205;28;11512;-77
2022/06/01 08:58:43;;;;;;;;;18.25;18.25;27.30;48.00;;;;;;4996287;28;11533;-78
2022/06/01 09:01:33;;;;;;;;;16.00;16.00;27.20;47.20;;;;;;4995983;28;12292;-77
2022/06/01 09:04:11;;;;;;;;;22.00;22.00;27.20;47.40;;;;;;4995972;28;8797;-77
2022/06/01 09:06:42;;;;;;;;;10.75;10.75;27.40;47.10;;;;;;4995999;28;11611;-79
2022/06/01 09:09:17;;;;;;;;;10.00;10.00;27.50;48.00;;;;;;4996072;28;11484;-78
2022/06/01 09:11:46;;;;;;;;;17.75;17.75;27.50;47.40;;;;;;4996112;28;11500;-77
2022/06/01 09:14:18;;;;;;;;;16.75;16.75;27.80;47.80;;;;;;4996151;28;11640;-78
2022/06/01 09:16:50;;;;;;;;;15.25;15.25;28.00;48.20;;;;;;4995914;28;11581;-78
2022/06/01 09:19:21;;;;;;;;;15.50;15.50;28.10;47.40;;;;;;4995747;28;11608;-79
2022/06/01 09:24:55;;;;;;;;;17.00;17.00;28.30;47.30;;;;;;4995499;28;11595;-78
2022/06/01 09:27:35;;;;;;;;;15.00;15.00;28.20;47.50;;;;;;4995598;28;11695;-79
2022/06/01 09:30:25;;;;;;;;;16.50;16.50;28.10;47.40;;;;;;4996017;28;8806;-79
2022/06/01 09:33:12;;;;;;;;;14.75;14.75;28.20;47.60;;;;;;4995849;28;11529;-78
2022/06/01 09:35:45;;;;;;;;;17.00;17.00;28.40;47.70;;;;;;4995431;28;11540;-76
2022/06/01 09:38:36;;;;;;;;;18.00;18.00;28.80;48.20;;;;;;4995633;28;11534;-78
2022/06/01 09:41:10;;;;;;;;;14.00;14.00;29.10;47.00;;;;;;4995286;28;11542;-77
2022/06/01 09:43:40;;;;;;;;;18.00;18.00;28.90;46.10;;;;;;4995613;28;11511;-79
2022/06/01 09:46:07;;;;;;;;;16.25;16.25;28.50;49.40;;;;;;4995309;28;11670;-78
2022/06/01 09:48:45;;;;;;;;;17.75;17.75;28.60;46.60;;;;;;4995395;28;11560;-78
2022/06/01 09:51:20;;;;;;;;;19.75;19.75;29.10;46.30;;;;;;4995322;28;12154;-77
2022/06/01 09:53:53;;;;;;;;;14.75;14.75;29.20;46.50;;;;;;4995304;28;11563;-77
2022/06/01 09:56:30;;;;;;;;;15.00;15.00;28.20;47.40;;;;;;4995420;28;11536;-78
2022/06/01 10:07:19;;;;;;;;;15.00;15.00;29.60;44.80;;;;;;4994571;28;11563;-77
2022/06/01 10:09:51;;;;;;;;;16.50;16.50;29.40;44.80;;;;;;4994778;28;11505;-78
2022/06/01 10:12:33;;;;;;;;;17.67;17.67;29.70;44.70;;;;;;4994984;28;11575;-78
2022/06/01 10:15:03;;;;;;;;;12.00;12.00;30.10;44.20;;;;;;4994988;28;11546;-78
2022/06/01 10:17:33;;;;;;;;;17.33;17.33;29.60;44.00;;;;;;4994732;28;11522;-78
2022/06/01 10:20:21;;;;;;;;;16.33;16.33;29.70;43.90;;;;;;4993496;28;11560;-76
2022/06/01 10:23:11;;;;;;;;;20.33;20.33;29.40;45.00;;;;;;4994846;28;11557;-77
2022/06/01 10:25:47;;;;;;;;;17.33;17.33;29.80;44.80;;;;;;4994673;28;11578;-76
2022/06/01 10:28:27;;;;;;;;;20.67;20.67;30.30;42.70;;;;;;4994943;28;11523;-77
2022/06/01 10:30:58;;;;;;;;;20.67;20.67;30.40;42.00;;;;;;4995279;28;11522;-78
2022/06/01 10:33:37;;;;;;;;;17.33;17.33;29.90;44.10;;;;;;4994772;28;11527;-77
2022/06/01 10:36:19;;;;;;;;;16.75;16.75;30.20;43.90;;;;;;4994865;28;11564;-78
2022/06/01 10:39:07;;;;;;;;;19.00;19.00;30.00;44.20;;;;;;4993897;28;11504;-78
2022/06/01 10:41:56;;;;;;;;;22.67;22.67;30.50;43.10;;;;;;4994651;28;11541;-77
2022/06/01 10:44:41;;;;;;;;;20.00;20.00;30.70;42.50;;;;;;4994733;28;11560;-76
2022/06/01 10:47:25;;;;;;;;;20.25;20.25;31.00;43.00;;;;;;4993615;28;11573;-77
2022/06/01 10:50:02;;;;;;;;;18.50;18.50;31.50;41.70;;;;;;4994795;28;11552;-79
2022/06/01 10:52:34;;;;;;;;;21.75;21.75;31.00;41.40;;;;;;4994600;28;11546;-75
2022/06/01 10:55:19;;;;;;;;;17.25;17.25;31.20;42.10;;;;;;5009956;28;11652;-76
2022/06/01 10:57:47;;;;;;;;;18.75;18.75;31.90;40.30;;;;;;4994517;28;12171;-76
2022/06/01 11:00:32;;;;;;;;;16.25;16.25;32.50;39.00;;;;;;4994411;28;12296;-75
2022/06/01 11:03:19;;;;;;;;;15.75;15.75;32.90;38.40;;;;;;4994666;28;11527;-75
2022/06/01 11:05:57;;;;;;;;;18.50;18.50;32.90;37.00;;;;;;4994151;28;11593;-76
2022/06/01 11:08:23;;;;;;;;;20.75;20.75;32.90;38.80;;;;;;4993211;28;11564;-75
2022/06/01 11:11:18;;;;;;;;;20.75;20.75;32.60;39.10;;;;;;4994178;28;11518;-75
2022/06/01 11:14:13;;;;;;;;;19.25;19.25;32.40;39.10;;;;;;4994438;28;8906;-75
2022/06/01 11:17:02;;;;;;;;;19.75;19.75;32.90;38.90;;;;;;4979802;28;11550;-76
2022/06/01 11:19:56;;;;;;;;;21.33;21.33;33.60;38.50;;;;;;4997376;28;11605;-73
2022/06/01 11:22:53;;;;;;;;;16.25;16.25;33.70;36.50;;;;;;4996845;28;11553;-75
2022/06/01 11:25:36;;;;;;;;;21.00;21.00;34.20;35.80;;;;;;4997962;28;11551;-74
2022/06/01 11:28:15;;;;;;;;;18.50;18.50;34.60;35.40;;;;;;4997824;28;12156;-76
2022/06/01 11:31:18;;;;;;;;;13.25;13.25;34.70;35.10;;;;;;4998027;28;11531;-77
2022/06/01 11:33:54;;;;;;;;;18.25;18.25;34.90;34.20;;;;;;4997720;28;11559;-76
2022/06/01 11:36:32;;;;;;;;;22.00;22.00;34.60;35.80;;;;;;4997799;28;11536;-75
2022/06/01 11:39:19;;;;;;;;;21.25;21.25;34.70;34.80;;;;;;4997669;28;11547;-76
2022/06/01 11:42:09;;;;;;;;;19.25;19.25;34.80;34.90;;;;;;4997800;28;11543;-75
2022/06/01 11:44:37;;;;;;;;;18.50;18.50;34.70;35.20;;;;;;4997833;28;11664;-77
2022/06/01 11:47:24;;;;;;;;;18.00;18.00;35.10;35.60;;;;;;4997108;28;11588;-78
2022/06/01 11:50:18;;;;;;;;;22.50;22.50;33.90;36.20;;;;;;4997118;28;11768;-71
2022/06/01 11:52:51;;;;;;;;;21.50;21.50;33.40;37.10;;;;;;4997256;28;11543;-73
2022/06/01 11:55:22;;;;;;;;;16.50;16.50;33.90;37.20;;;;;;4997098;28;11567;-71
2022/06/01 11:57:52;;;;;;;;;17.00;17.00;34.70;35.70;;;;;;4997205;28;11543;-72
2022/06/01 12:00:33;;;;;;;;;18.25;18.25;36.00;34.30;;;;;;4997249;28;11537;-71
2022/06/01 12:03:24;;;;;;;;;18.00;18.00;39.50;30.10;;;;;;4996846;28;11551;-71
2022/06/01 12:06:11;;;;;;;;;14.00;14.00;38.40;28.80;;;;;;4996936;28;11569;-72
2022/06/01 12:08:50;;;;;;;;;19.25;19.25;38.20;29.10;;;;;;4997391;28;11633;-73
2022/06/01 12:11:41;;;;;;;;;20.00;20.00;36.90;31.30;;;;;;5012144;28;11579;-74
2022/06/01 12:14:55;;;;;;;;;13.75;13.75;36.10;31.90;;;;;;4996549;28;11575;-75
2022/06/01 12:17:28;;;;;;;;;15.75;15.75;36.00;31.90;;;;;;4996795;28;11523;-74
2022/06/01 12:20:32;;;;;;;;;17.75;17.75;36.40;33.50;;;;;;4996072;28;12206;-74
2022/06/01 12:28:51;;;;;;;;;17.25;16.50;36.10;32.00;;;;;;4996454;28;11503;-76
2022/06/01 12:31:24;;;;;;;;;21.75;21.75;35.30;33.00;;;;;;4996360;28;11527;-77
2022/06/01 12:34:19;;;;;;;;;22.25;22.25;35.40;34.10;;;;;;4996156;28;11519;-76
2022/06/01 12:36:54;;;;;;;;;20.50;20.00;35.10;34.30;;;;;;4995904;28;11655;-77
2022/06/01 12:39:33;;;;;;;;;18.50;18.50;35.60;33.60;;;;;;4995778;28;11548;-80
2022/06/01 12:42:04;;;;;;;;;16.75;16.75;35.90;32.90;;;;;;4996135;28;12213;-78
2022/06/01 12:44:34;;;;;;;;;14.75;14.75;35.10;32.70;;;;;;4996026;28;11578;-75
2022/06/01 12:47:00;;;;;;;;;12.00;12.00;34.20;33.20;;;;;;4996130;28;11566;-77
2022/06/01 12:49:41;;;;;;;;;12.50;12.50;34.20;32.00;;;;;;4996133;28;11572;-75
2022/06/01 12:52:15;;;;;;;;;16.50;16.50;33.60;33.10;;;;;;4995941;28;12230;-80
2022/06/01 12:54:50;;;;;;;;;12.75;12.75;33.70;34.00;;;;;;4995593;28;11528;-77
2022/06/01 12:57:32;;;;;;;;;13.00;13.00;34.30;32.70;;;;;;4994750;28;11570;-77
2022/06/01 13:00:08;;;;;;;;;15.00;15.00;35.00;31.00;;;;;;4995786;28;11562;-77
2022/06/01 13:02:36;;;;;;;;;12.75;12.75;35.40;31.70;;;;;;4995802;28;11684;-78
2022/06/01 13:05:04;;;;;;;;;13.00;13.00;34.50;32.30;;;;;;4995429;28;11538;-74
2022/06/01 13:07:35;;;;;;;;;13.50;13.50;33.70;33.80;;;;;;4995281;28;11549;-76
2022/06/01 13:10:18;;;;;;;;;9.00;9.00;34.50;33.10;;;;;;4994523;28;11509;-79
2022/06/01 13:12:43;;;;;;;;;13.00;13.00;34.30;32.30;;;;;;4995801;28;12119;-78
2022/06/01 13:15:24;;;;;;;;;14.00;14.00;34.30;31.60;;;;;;4995430;28;11527;-81
2022/06/01 13:17:56;;;;;;;;;14.00;14.00;35.00;32.20;;;;;;4995451;28;8829;-75
2022/06/01 13:20:45;;;;;;;;;17.75;17.50;35.50;31.80;;;;;;4995149;28;11557;-75
2022/06/01 13:23:25;;;;;;;;;16.00;16.00;35.80;31.30;;;;;;4994984;28;11519;-74
2022/06/01 13:25:53;;;;;;;;;14.50;14.50;35.00;32.50;;;;;;4995198;28;11561;-74
2022/06/01 13:28:19;;;;;;;;;13.75;13.75;35.10;31.60;;;;;;4995498;28;11541;-75
2022/06/01 13:30:46;;;;;;;;;12.00;12.00;35.40;31.30;;;;;;4995125;28;11530;-74